Time;durP1;ratioP1;P1;durP2;ratioP2;P2;SDS_P1;SDS_P2;PMS_P1;PMS_P2;Temp;Humidity;BMP_temperature;BMP_pressure;BME280_temperature;BME280_humidity;BME280_pressure;Samples;Min_cycle;Max_cycle;Signal;HPM_P1;HPM_P2
2021/01/10 00:01:27;;;;;;;2.33;2.03;;;17.70;25.70;;;;;;5053196;28;20518;-60
2021/01/10 00:03:53;;;;;;;2.40;2.20;;;17.70;25.70;;;;;;5051922;28;20178;-60
2021/01/10 00:06:19;;;;;;;3.33;2.10;;;17.70;25.70;;;;;;5051844;28;20213;-61
2021/01/10 00:08:44;;;;;;;2.07;1.87;;;17.70;25.70;;;;;;5052517;28;20174;-61
2021/01/10 00:11:10;;;;;;;2.27;2.07;;;17.70;25.70;;;;;;5052738;28;20608;-59
2021/01/10 00:13:35;;;;;;;2.70;1.80;;;17.70;25.70;;;;;;5054754;28;20238;-60
2021/01/10 00:16:01;;;;;;;2.30;1.70;;;17.70;25.70;;;;;;5056602;28;20603;-60
2021/01/10 00:18:32;;;;;;;2.33;1.67;;;17.70;25.80;;;;;;5056685;28;20156;-60
2021/01/10 00:20:58;;;;;;;1.80;1.70;;;17.70;25.70;;;;;;5056712;28;20194;-59
2021/01/10 00:23:24;;;;;;;1.47;1.20;;;17.70;25.70;;;;;;5056174;28;20186;-60
2021/01/10 00:25:51;;;;;;;1.70;1.50;;;17.70;25.70;;;;;;5056691;28;20167;-60
2021/01/10 00:28:17;;;;;;;1.88;1.60;;;17.70;25.80;;;;;;5056715;28;20163;-60
2021/01/10 00:30:43;;;;;;;1.63;1.53;;;17.70;25.70;;;;;;5056751;28;20197;-60
2021/01/10 00:33:08;;;;;;;1.70;1.53;;;17.70;25.70;;;;;;5056378;28;20361;-60
2021/01/10 00:35:34;;;;;;;1.63;1.53;;;17.70;25.70;;;;;;5056492;28;20156;-60
2021/01/10 00:38:02;;;;;;;2.00;1.90;;;17.70;25.70;;;;;;5055828;28;20167;-60
2021/01/10 00:40:31;;;;;;;2.60;1.90;;;17.70;25.70;;;;;;5056318;28;20166;-60
2021/01/10 00:42:59;;;;;;;1.60;1.50;;;17.70;25.70;;;;;;5056089;28;20163;-60
2021/01/10 00:45:25;;;;;;;2.10;2.00;;;17.70;25.70;;;;;;5054947;28;20177;-60
2021/01/10 00:47:54;;;;;;;2.42;2.22;;;17.70;25.70;;;;;;5055978;28;20179;-60
2021/01/10 00:50:19;;;;;;;3.05;1.90;;;17.70;25.80;;;;;;5074181;28;20194;-59
2021/01/10 00:52:45;;;;;;;1.70;1.60;;;17.70;26.30;;;;;;5074418;28;20234;-60
2021/01/10 00:55:11;;;;;;;1.93;1.73;;;17.70;25.80;;;;;;5070331;28;20229;-60
2021/01/10 00:57:37;;;;;;;2.37;2.17;;;17.70;25.80;;;;;;5055925;28;20162;-60
2021/01/10 01:00:12;;;;;;;2.10;1.87;;;17.70;25.70;;;;;;5055873;28;20412;-61
2021/01/10 01:02:38;;;;;;;2.90;1.88;;;17.70;25.80;;;;;;5055746;28;20409;-59
2021/01/10 01:05:04;;;;;;;2.50;2.30;;;17.70;25.80;;;;;;5088237;28;20163;-60
2021/01/10 01:07:30;;;;;;;1.95;1.85;;;17.70;25.80;;;;;;5055278;28;20178;-59
2021/01/10 01:09:55;;;;;;;2.50;1.80;;;17.70;25.80;;;;;;5055857;28;20274;-60
2021/01/10 01:12:21;;;;;;;2.10;1.83;;;17.70;25.80;;;;;;5055518;28;20670;-60
2021/01/10 01:14:47;;;;;;;1.83;1.63;;;17.70;25.80;;;;;;5055712;28;20166;-60
2021/01/10 01:17:12;;;;;;;2.00;1.90;;;17.70;25.80;;;;;;5055474;28;20155;-60
2021/01/10 01:19:38;;;;;;;1.60;1.50;;;17.70;25.80;;;;;;5088151;28;20156;-59
2021/01/10 01:22:03;;;;;;;1.70;1.43;;;17.70;25.80;;;;;;5053825;28;20167;-60
2021/01/10 01:24:29;;;;;;;2.40;1.70;;;17.70;25.80;;;;;;5055714;28;20155;-61
2021/01/10 01:26:55;;;;;;;2.30;2.00;;;17.70;25.80;;;;;;5055364;28;20184;-61
2021/01/10 01:29:20;;;;;;;2.00;1.90;;;17.60;25.70;;;;;;5055413;28;20633;-61
2021/01/10 01:31:46;;;;;;;1.83;1.73;;;17.60;25.70;;;;;;5055286;28;20194;-61
2021/01/10 01:34:11;;;;;;;1.80;1.70;;;17.70;25.80;;;;;;5055261;28;20151;-61
2021/01/10 01:36:37;;;;;;;1.83;1.70;;;17.60;25.70;;;;;;5055253;28;20167;-60
2021/01/10 01:39:03;;;;;;;2.40;1.87;;;17.60;25.70;;;;;;5054748;28;20534;-60
2021/01/10 01:41:37;;;;;;;1.77;1.67;;;17.60;25.80;;;;;;5055356;28;20252;-60
2021/01/10 01:44:03;;;;;;;1.75;1.65;;;17.60;25.80;;;;;;5070377;28;20920;-59
2021/01/10 01:46:35;;;;;;;1.52;1.42;;;17.70;26.40;;;;;;5055151;28;20201;-59
2021/01/10 01:49:08;;;;;;;1.73;1.63;;;17.60;25.70;;;;;;5055112;28;20185;-60
2021/01/10 01:51:35;;;;;;;1.60;1.50;;;17.60;25.80;;;;;;5054920;28;20187;-60
2021/01/10 01:54:03;;;;;;;2.00;1.80;;;17.60;25.70;;;;;;5054440;28;20201;-59
2021/01/10 01:56:29;;;;;;;1.73;1.60;;;17.60;25.80;;;;;;5068720;28;20630;-60
2021/01/10 01:59:15;;;;;;;1.60;1.50;;;17.60;25.80;;;;;;5074696;28;20249;-60
2021/01/10 02:01:41;;;;;;;1.73;1.63;;;17.60;26.30;;;;;;5074626;28;20190;-60
2021/01/10 02:04:27;;;;;;;1.83;1.70;;;17.60;26.30;;;;;;5074612;28;20224;-60
2021/01/10 02:07:02;;;;;;;1.80;1.60;;;17.60;25.80;;;;;;5074711;28;20756;-60
2021/01/10 02:09:31;;;;;;;2.13;2.00;;;17.60;25.80;;;;;;5074651;28;20162;-59
2021/01/10 02:12:02;;;;;;;2.20;2.00;;;17.60;25.80;;;;;;5074184;28;20214;-61
2021/01/10 02:14:34;;;;;;;1.85;1.60;;;17.60;25.80;;;;;;5074712;28;20241;-60
2021/01/10 02:17:00;;;;;;;2.45;1.70;;;17.60;25.80;;;;;;5074309;28;20602;-59
2021/01/10 02:19:33;;;;;;;2.08;1.88;;;17.60;25.80;;;;;;5074533;28;20241;-61
2021/01/10 02:22:05;;;;;;;2.50;2.30;;;17.60;25.70;;;;;;5073899;28;20157;-59
2021/01/10 02:24:34;;;;;;;1.92;1.83;;;17.60;25.80;;;;;;5074332;28;20159;-60
2021/01/10 02:27:03;;;;;;;2.90;1.80;;;17.60;25.80;;;;;;5073937;28;20173;-60
2021/01/10 02:29:35;;;;;;;1.83;1.73;;;17.60;25.70;;;;;;5074438;28;20162;-59
2021/01/10 02:32:02;;;;;;;1.50;1.40;;;17.60;25.70;;;;;;5074150;28;20196;-60
2021/01/10 02:34:35;;;;;;;1.92;1.80;;;17.60;25.70;;;;;;5074090;28;20157;-60
2021/01/10 02:37:39;;;;;;;2.10;1.90;;;17.60;25.80;;;;;;5071769;28;20174;-60
2021/01/10 02:40:14;;;;;;;2.10;1.90;;;17.60;25.70;;;;;;5074137;28;20241;-59
2021/01/10 02:43:05;;;;;;;1.98;1.70;;;17.60;25.80;;;;;;5073741;28;20158;-59
2021/01/10 02:45:31;;;;;;;2.10;1.90;;;17.60;25.80;;;;;;5071641;28;20186;-59
2021/01/10 02:47:59;;;;;;;1.42;1.33;;;17.60;25.80;;;;;;5073885;28;20506;-60
2021/01/10 02:50:26;;;;;;;1.83;1.70;;;17.60;25.80;;;;;;5073885;28;20186;-61
2021/01/10 02:52:53;;;;;;;1.90;1.80;;;17.60;25.80;;;;;;5073436;28;20607;-60
2021/01/10 02:55:19;;;;;;;1.80;1.70;;;17.60;25.80;;;;;;5072534;28;20645;-61
2021/01/10 02:57:55;;;;;;;1.83;1.73;;;17.60;25.80;;;;;;5073841;28;20194;-60
2021/01/10 03:00:23;;;;;;;2.08;1.60;;;17.60;25.80;;;;;;5072481;28;20235;-60
2021/01/10 03:02:52;;;;;;;2.40;2.15;;;17.50;25.80;;;;;;5073940;28;20155;-61
2021/01/10 03:05:18;;;;;;;1.85;1.60;;;17.50;25.80;;;;;;5073789;28;20212;-60
2021/01/10 03:07:45;;;;;;;2.03;1.83;;;17.60;25.80;;;;;;5073218;28;20158;-60
2021/01/10 03:10:12;;;;;;;1.90;1.80;;;17.50;25.80;;;;;;5073561;28;20800;-60
2021/01/10 03:12:38;;;;;;;1.83;1.73;;;17.50;25.80;;;;;;5073506;28;20259;-60
2021/01/10 03:15:05;;;;;;;1.70;1.60;;;17.50;25.80;;;;;;5072556;28;20171;-60
2021/01/10 03:17:50;;;;;;;2.10;1.60;;;17.50;25.80;;;;;;5073564;28;20606;-60
2021/01/10 03:20:18;;;;;;;2.10;1.90;;;17.50;25.80;;;;;;5073830;28;20162;-60
2021/01/10 03:22:45;;;;;;;2.10;1.90;;;17.50;25.80;;;;;;5073142;28;20165;-60
2021/01/10 03:25:13;;;;;;;1.83;1.73;;;17.50;25.80;;;;;;5073631;28;20163;-60
2021/01/10 03:27:39;;;;;;;1.90;1.70;;;17.50;25.80;;;;;;5073595;28;20190;-59
2021/01/10 03:30:07;;;;;;;2.03;1.93;;;17.50;25.80;;;;;;5073491;28;20225;-59
2021/01/10 03:32:33;;;;;;;1.90;1.80;;;17.50;25.80;;;;;;5072234;28;20417;-59
2021/01/10 03:34:59;;;;;;;1.80;1.70;;;17.50;25.80;;;;;;5072313;28;20520;-59
2021/01/10 03:37:24;;;;;;;1.73;1.63;;;17.50;25.80;;;;;;5073041;28;20166;-60
2021/01/10 03:39:50;;;;;;;1.73;1.63;;;17.50;25.80;;;;;;5073527;28;20151;-60
2021/01/10 03:42:16;;;;;;;1.80;1.70;;;17.50;25.80;;;;;;5073374;28;20487;-60
2021/01/10 03:44:41;;;;;;;2.13;1.93;;;17.50;25.80;;;;;;5073719;28;20161;-60
2021/01/10 03:47:07;;;;;;;1.63;1.53;;;17.50;25.80;;;;;;5074290;28;20250;-60
2021/01/10 03:49:33;;;;;;;1.57;1.43;;;17.50;25.80;;;;;;5077327;28;20512;-60
2021/01/10 03:51:58;;;;;;;2.27;1.83;;;18.10;26.20;;;;;;5076841;28;20679;-60
2021/01/10 03:54:24;;;;;;;1.80;1.70;;;17.50;25.80;;;;;;5077353;28;20151;-60
2021/01/10 03:56:50;;;;;;;1.87;1.67;;;17.50;25.80;;;;;;5077197;28;20201;-60
2021/01/10 03:59:16;;;;;;;2.00;1.60;;;17.50;25.80;;;;;;5077140;28;20151;-60
2021/01/10 04:01:42;;;;;;;1.70;1.60;;;17.50;25.80;;;;;;5077129;28;20295;-60
2021/01/10 04:04:07;;;;;;;2.00;1.80;;;17.50;25.80;;;;;;5076996;28;20170;-60
2021/01/10 04:06:33;;;;;;;1.83;1.70;;;17.50;25.80;;;;;;5077113;28;20510;-60
2021/01/10 04:09:03;;;;;;;2.10;1.70;;;17.50;25.80;;;;;;5076399;28;20159;-60
2021/01/10 04:11:28;;;;;;;2.20;2.00;;;17.50;25.80;;;;;;5076866;28;20218;-60
2021/01/10 04:13:54;;;;;;;2.00;1.90;;;17.50;25.80;;;;;;5076821;28;20280;-60
2021/01/10 04:16:20;;;;;;;2.23;2.00;;;17.50;25.80;;;;;;5076765;28;20253;-60
2021/01/10 04:18:45;;;;;;;2.00;1.80;;;17.50;25.80;;;;;;5075453;28;20171;-60
2021/01/10 04:21:11;;;;;;;2.00;1.90;;;17.50;25.80;;;;;;5076846;28;20170;-60
2021/01/10 04:23:37;;;;;;;2.27;2.07;;;17.50;25.90;;;;;;5076166;28;20245;-60
2021/01/10 04:26:03;;;;;;;3.80;1.63;;;17.50;25.90;;;;;;5076721;28;20158;-60
2021/01/10 04:28:29;;;;;;;1.98;1.88;;;17.50;25.80;;;;;;5075378;28;20518;-61
2021/01/10 04:30:55;;;;;;;2.10;1.90;;;17.50;25.90;;;;;;5076521;28;20634;-60
2021/01/10 04:33:22;;;;;;;1.70;1.60;;;17.50;25.90;;;;;;5076437;28;20401;-60
2021/01/10 04:35:48;;;;;;;3.00;2.20;;;17.50;25.90;;;;;;5076389;28;20155;-60
2021/01/10 04:38:13;;;;;;;2.37;1.60;;;17.50;25.90;;;;;;5075976;28;20201;-60
2021/01/10 04:40:39;;;;;;;2.87;2.50;;;17.50;25.90;;;;;;5076408;28;20499;-60
2021/01/10 04:43:05;;;;;;;1.73;1.63;;;17.50;25.90;;;;;;5076333;28;20633;-60
2021/01/10 04:45:31;;;;;;;2.47;2.10;;;17.50;25.90;;;;;;5058314;28;20615;-60
2021/01/10 04:47:56;;;;;;;1.97;1.83;;;17.50;26.50;;;;;;5076191;28;20154;-60
2021/01/10 04:50:23;;;;;;;2.23;1.53;;;17.50;25.90;;;;;;5076157;28;20190;-60
2021/01/10 04:52:53;;;;;;;2.03;1.80;;;17.50;25.90;;;;;;5075651;28;20397;-60
2021/01/10 04:55:24;;;;;;;1.90;1.70;;;17.50;25.90;;;;;;5075846;28;20174;-60
2021/01/10 04:57:52;;;;;;;1.98;1.80;;;17.50;25.90;;;;;;5075955;28;20166;-60
2021/01/10 05:00:19;;;;;;;2.20;2.00;;;17.50;25.80;;;;;;5075528;28;20171;-60
2021/01/10 05:03:01;;;;;;;1.83;1.73;;;17.50;25.80;;;;;;5074632;28;20174;-60
2021/01/10 05:05:31;;;;;;;2.00;1.85;;;17.50;25.80;;;;;;5075785;28;20159;-60
2021/01/10 05:07:58;;;;;;;3.22;2.72;;;17.60;25.90;;;;;;5075319;28;20610;-60
2021/01/10 05:10:23;;;;;;;2.00;1.70;;;17.60;25.90;;;;;;5075782;28;20186;-60
2021/01/10 05:12:49;;;;;;;1.60;1.50;;;17.60;25.90;;;;;;5074494;28;20267;-60
2021/01/10 05:15:14;;;;;;;1.70;1.57;;;17.60;25.90;;;;;;5074700;28;20232;-60
2021/01/10 05:17:40;;;;;;;1.70;1.60;;;17.60;25.90;;;;;;5075737;28;20238;-59
2021/01/10 05:20:10;;;;;;;2.13;2.03;;;17.60;25.90;;;;;;5075563;28;20687;-59
2021/01/10 05:22:38;;;;;;;2.20;1.90;;;17.60;25.90;;;;;;5075032;28;20245;-60
2021/01/10 05:25:13;;;;;;;1.58;1.48;;;17.60;25.80;;;;;;5075738;28;20162;-60
2021/01/10 05:27:39;;;;;;;1.67;1.58;;;17.60;25.90;;;;;;5074278;28;20690;-60
2021/01/10 05:30:06;;;;;;;1.98;1.80;;;17.60;25.90;;;;;;5075405;28;20240;-60
2021/01/10 05:32:31;;;;;;;1.85;1.75;;;17.60;25.80;;;;;;5075445;28;20149;-60
2021/01/10 05:35:04;;;;;;;1.60;1.50;;;17.60;25.80;;;;;;5074162;28;20744;-60
2021/01/10 05:37:29;;;;;;;1.63;1.50;;;17.60;25.80;;;;;;5073598;28;20178;-60
2021/01/10 05:39:55;;;;;;;1.80;1.70;;;17.60;25.80;;;;;;5075383;28;20155;-61
2021/01/10 05:42:31;;;;;;;3.63;2.10;;;17.60;25.80;;;;;;5075149;28;20474;-60
2021/01/10 05:45:03;;;;;;;2.05;1.85;;;17.60;25.70;;;;;;5075133;28;20471;-60
2021/01/10 05:47:38;;;;;;;2.13;1.90;;;17.60;25.70;;;;;;5075048;28;20158;-60
2021/01/10 05:50:13;;;;;;;1.98;1.70;;;17.60;25.80;;;;;;5074915;28;20155;-59
2021/01/10 05:52:39;;;;;;;1.60;1.50;;;17.60;25.70;;;;;;5074586;28;20160;-60
2021/01/10 05:55:08;;;;;;;2.07;1.97;;;17.60;25.70;;;;;;5073506;28;20513;-60
2021/01/10 05:57:34;;;;;;;1.85;1.75;;;17.60;25.70;;;;;;5074847;28;20821;-60
2021/01/10 06:00:05;;;;;;;2.07;1.87;;;17.60;25.70;;;;;;5074943;28;20653;-60
2021/01/10 06:02:37;;;;;;;2.45;2.10;;;17.70;25.80;;;;;;5075022;28;20172;-60
2021/01/10 06:05:18;;;;;;;1.70;1.60;;;17.70;25.80;;;;;;5074628;28;20150;-60
2021/01/10 06:07:44;;;;;;;1.58;1.48;;;17.70;25.80;;;;;;5074365;28;20154;-61
2021/01/10 06:10:11;;;;;;;2.15;2.05;;;17.70;25.80;;;;;;5074062;28;20193;-59
2021/01/10 06:12:37;;;;;;;1.98;1.77;;;17.70;25.70;;;;;;5074034;28;20727;-59
2021/01/10 06:15:17;;;;;;;1.70;1.60;;;17.70;25.70;;;;;;5073342;28;20503;-59
2021/01/10 06:17:45;;;;;;;1.90;1.80;;;17.70;25.90;;;;;;5074383;28;20207;-59
2021/01/10 06:20:24;;;;;;;1.80;1.70;;;17.70;25.70;;;;;;5074341;28;20179;-60
2021/01/10 06:22:52;;;;;;;1.85;1.75;;;17.70;25.70;;;;;;5073770;28;20158;-60
2021/01/10 06:25:25;;;;;;;1.80;1.70;;;17.70;25.70;;;;;;5074425;28;20178;-60
2021/01/10 06:28:12;;;;;;;2.00;1.80;;;17.70;25.70;;;;;;5074248;28;20514;-59
2021/01/10 06:30:41;;;;;;;1.80;1.70;;;17.70;25.70;;;;;;5074233;28;20229;-60
2021/01/10 06:33:16;;;;;;;2.72;1.85;;;17.70;25.70;;;;;;5074098;28;20147;-60
2021/01/10 06:35:43;;;;;;;2.60;2.40;;;17.70;25.70;;;;;;5074096;28;20154;-60
2021/01/10 06:38:10;;;;;;;1.95;1.85;;;17.70;25.70;;;;;;5073755;28;20630;-59
2021/01/10 06:40:40;;;;;;;1.58;1.48;;;17.70;25.60;;;;;;5074077;28;20166;-60
2021/01/10 06:43:08;;;;;;;2.00;1.75;;;17.70;25.60;;;;;;5073907;28;20154;-60
2021/01/10 06:45:39;;;;;;;2.05;1.85;;;17.70;25.60;;;;;;5072912;28;20178;-60
2021/01/10 06:48:06;;;;;;;1.65;1.55;;;17.70;25.60;;;;;;5073749;28;20241;-59
2021/01/10 06:50:33;;;;;;;2.05;1.85;;;17.70;25.60;;;;;;5073938;28;20293;-60
2021/01/10 06:53:13;;;;;;;1.83;1.73;;;17.70;25.60;;;;;;5072040;28;20522;-60
2021/01/10 06:55:40;;;;;;;1.63;1.52;;;17.80;25.70;;;;;;5073945;28;20181;-61
2021/01/10 06:58:09;;;;;;;1.88;1.77;;;17.70;25.60;;;;;;5073959;28;20143;-61
2021/01/10 07:00:54;;;;;;;1.60;1.50;;;17.70;25.60;;;;;;5073999;28;20159;-61
2021/01/10 07:03:20;;;;;;;1.52;1.42;;;17.70;25.60;;;;;;5055763;28;20166;-59
2021/01/10 07:06:06;;;;;;;1.70;1.60;;;17.80;25.70;;;;;;5072774;28;20163;-60
2021/01/10 07:08:35;;;;;;;1.73;1.63;;;17.80;25.70;;;;;;5072077;28;20171;-60
2021/01/10 07:11:25;;;;;;;2.22;2.03;;;17.80;25.70;;;;;;5073445;28;20242;-61
2021/01/10 07:14:12;;;;;;;1.70;1.60;;;17.80;25.70;;;;;;5073613;28;20233;-60
2021/01/10 07:16:39;;;;;;;1.83;1.30;;;17.80;25.70;;;;;;5073289;28;20364;-60
2021/01/10 07:19:11;;;;;;;1.58;1.48;;;17.80;25.60;;;;;;5073494;28;20258;-60
2021/01/10 07:21:40;;;;;;;2.60;1.52;;;17.80;25.70;;;;;;5073834;28;20165;-60
2021/01/10 07:24:20;;;;;;;1.55;1.45;;;17.80;25.70;;;;;;5073255;28;20234;-61
2021/01/10 07:26:48;;;;;;;2.17;1.77;;;17.80;25.60;;;;;;5073684;28;20201;-60
2021/01/10 07:29:43;;;;;;;2.15;1.95;;;17.80;25.60;;;;;;5073524;28;20601;-60
2021/01/10 07:32:09;;;;;;;1.67;1.58;;;17.80;25.60;;;;;;5073340;28;20213;-60
2021/01/10 07:34:37;;;;;;;2.00;1.80;;;17.80;25.60;;;;;;5073664;28;20158;-61
2021/01/10 07:37:06;;;;;;;1.50;1.40;;;17.80;25.60;;;;;;5073030;28;20159;-61
2021/01/10 07:39:35;;;;;;;1.52;1.42;;;17.80;25.60;;;;;;5073479;28;20155;-60
2021/01/10 07:42:13;;;;;;;1.75;1.65;;;17.80;25.60;;;;;;5073451;28;20154;-61
2021/01/10 07:44:56;;;;;;;1.70;1.60;;;17.80;25.60;;;;;;5073534;28;20147;-60
2021/01/10 07:47:33;;;;;;;1.60;1.50;;;17.80;25.60;;;;;;5073178;28;20147;-59
2021/01/10 07:50:10;;;;;;;1.60;1.50;;;17.80;25.50;;;;;;5073335;28;20178;-61
2021/01/10 07:52:41;;;;;;;1.90;1.73;;;17.80;25.60;;;;;;5072740;28;20632;-60
2021/01/10 07:55:17;;;;;;;1.70;1.60;;;17.90;25.50;;;;;;5073171;28;20844;-60
2021/01/10 07:57:47;;;;;;;1.50;1.40;;;17.90;25.50;;;;;;5073209;28;20139;-60
2021/01/10 08:00:20;;;;;;;1.48;1.38;;;17.90;25.50;;;;;;5073122;28;20159;-60
2021/01/10 08:02:50;;;;;;;1.30;1.20;;;17.90;25.50;;;;;;5073173;28;20166;-61
2021/01/10 08:05:18;;;;;;;2.03;1.85;;;17.90;25.50;;;;;;5073049;28;20155;-60
2021/01/10 08:07:52;;;;;;;1.70;1.60;;;17.90;25.40;;;;;;5071337;28;20552;-60
2021/01/10 08:10:18;;;;;;;1.60;1.50;;;17.90;25.50;;;;;;5073234;28;20197;-60
2021/01/10 08:12:44;;;;;;;1.83;1.73;;;17.90;25.40;;;;;;5073009;28;20214;-60
2021/01/10 08:15:11;;;;;;;1.50;1.40;;;17.90;25.40;;;;;;5073121;28;20258;-60
2021/01/10 08:17:38;;;;;;;1.90;1.80;;;18.00;25.50;;;;;;5072893;28;20163;-60
2021/01/10 08:20:06;;;;;;;1.92;1.80;;;18.00;25.40;;;;;;5072983;28;20182;-60
2021/01/10 08:22:32;;;;;;;1.95;1.67;;;18.00;25.40;;;;;;5072569;28;20181;-60
2021/01/10 08:24:59;;;;;;;2.45;2.25;;;18.00;25.40;;;;;;5073162;28;20245;-60
2021/01/10 08:27:25;;;;;;;1.70;1.60;;;18.00;25.30;;;;;;5072936;28;20158;-60
2021/01/10 08:29:51;;;;;;;1.83;1.73;;;18.10;25.30;;;;;;5071766;28;20166;-60
2021/01/10 08:32:19;;;;;;;1.85;1.70;;;18.10;25.30;;;;;;5071658;28;20471;-60
2021/01/10 08:34:49;;;;;;;2.25;2.05;;;18.10;25.20;;;;;;5074603;28;20624;-60
2021/01/10 08:37:19;;;;;;;1.48;1.38;;;18.10;25.20;;;;;;5074780;28;20178;-61
2021/01/10 08:40:03;;;;;;;1.48;1.38;;;18.20;25.20;;;;;;5076726;28;20162;-60
2021/01/10 08:42:33;;;;;;;1.55;1.45;;;18.20;25.20;;;;;;5076484;28;20508;-60
2021/01/10 08:45:21;;;;;;;1.95;1.83;;;18.20;25.10;;;;;;5076240;28;20287;-61
2021/01/10 08:47:48;;;;;;;1.70;1.38;;;18.20;25.10;;;;;;5076261;28;20166;-60
2021/01/10 08:50:14;;;;;;;1.30;1.20;;;18.20;25.00;;;;;;5074845;28;20202;-60
2021/01/10 08:52:56;;;;;;;1.92;1.83;;;18.30;25.00;;;;;;5075766;28;20167;-60
2021/01/10 08:55:32;;;;;;;2.22;1.98;;;18.30;25.00;;;;;;5076020;28;20198;-60
2021/01/10 08:57:59;;;;;;;1.77;1.67;;;18.40;24.90;;;;;;5076044;28;20157;-60
2021/01/10 09:00:25;;;;;;;2.13;1.98;;;18.40;24.90;;;;;;5076133;28;20173;-61
2021/01/10 09:02:51;;;;;;;1.98;1.88;;;18.40;24.80;;;;;;5074884;28;20174;-60
2021/01/10 09:05:27;;;;;;;1.70;1.60;;;18.40;24.80;;;;;;5058065;28;20171;-60
2021/01/10 09:08:01;;;;;;;1.80;1.70;;;18.40;24.70;;;;;;5075795;28;20155;-60
2021/01/10 09:10:30;;;;;;;1.65;1.55;;;18.50;24.70;;;;;;5075617;28;20209;-60
2021/01/10 09:13:07;;;;;;;2.40;1.80;;;18.50;24.70;;;;;;5075531;28;20161;-59
2021/01/10 09:15:38;;;;;;;1.80;1.70;;;18.50;24.60;;;;;;5075615;28;20253;-59
2021/01/10 09:18:14;;;;;;;1.98;1.77;;;18.60;24.60;;;;;;5075610;28;20147;-59
2021/01/10 09:21:26;;;;;;;1.67;1.58;;;18.60;24.50;;;;;;5075639;28;20363;-59
2021/01/10 09:24:01;;;;;;;2.03;1.65;;;18.60;24.50;;;;;;5063405;28;20224;-59
2021/01/10 09:26:34;;;;;;;1.88;1.73;;;18.70;24.40;;;;;;5075564;28;20203;-60
2021/01/10 09:29:02;;;;;;;2.05;1.67;;;18.70;24.40;;;;;;5075095;28;20193;-60
2021/01/10 09:31:41;;;;;;;4.03;1.55;;;18.70;24.40;;;;;;5075275;28;20220;-60
2021/01/10 09:34:08;;;;;;;1.90;1.80;;;18.70;24.30;;;;;;5075286;28;20158;-61
2021/01/10 09:36:33;;;;;;;1.80;1.70;;;18.80;24.90;;;;;;5074139;28;20166;-60
2021/01/10 09:38:59;;;;;;;1.90;1.70;;;18.80;24.30;;;;;;5074890;28;20738;-60
2021/01/10 09:41:25;;;;;;;1.93;1.83;;;18.80;24.20;;;;;;5107898;27;20677;-61
2021/01/10 09:43:55;;;;;;;2.83;1.63;;;18.80;24.20;;;;;;5073945;28;20627;-60
2021/01/10 09:46:28;;;;;;;1.98;1.58;;;18.80;24.10;;;;;;5075337;28;20198;-59
2021/01/10 09:49:18;;;;;;;2.05;1.40;;;18.90;24.10;;;;;;5074707;28;20166;-60
2021/01/10 09:51:54;;;;;;;1.70;1.60;;;18.90;24.10;;;;;;5074897;28;20629;-59
2021/01/10 09:54:23;;;;;;;1.58;1.48;;;18.80;24.00;;;;;;5073808;28;20208;-59
2021/01/10 09:57:08;;;;;;;2.20;2.00;;;18.80;24.10;;;;;;5074765;28;20182;-60
2021/01/10 09:59:35;;;;;;;2.08;1.85;;;18.80;24.10;;;;;;5073802;28;20158;-60
2021/01/10 10:02:09;;;;;;;1.90;1.80;;;18.80;24.10;;;;;;5075076;28;20154;-60
2021/01/10 10:04:35;;;;;;;2.13;1.90;;;18.80;24.20;;;;;;5074773;28;20196;-59
2021/01/10 10:07:01;;;;;;;2.70;1.93;;;18.80;24.20;;;;;;5074245;28;20242;-59
2021/01/10 10:09:46;;;;;;;1.95;1.75;;;18.80;24.20;;;;;;5074825;28;20544;-60
2021/01/10 10:12:12;;;;;;;1.98;1.85;;;18.80;24.20;;;;;;5072640;28;20222;-59
2021/01/10 10:14:37;;;;;;;1.90;1.73;;;18.80;24.20;;;;;;5074485;28;20209;-60
2021/01/10 10:17:03;;;;;;;1.50;1.40;;;18.80;24.20;;;;;;5074422;28;20186;-59
2021/01/10 10:19:32;;;;;;;1.90;1.70;;;18.80;24.20;;;;;;5074548;28;20238;-59
2021/01/10 10:22:01;;;;;;;1.60;1.50;;;18.80;24.20;;;;;;5073874;28;20158;-59
2021/01/10 10:24:26;;;;;;;3.17;1.63;;;18.80;24.20;;;;;;5074342;28;20166;-60
2021/01/10 10:26:52;;;;;;;1.53;1.43;;;18.80;24.20;;;;;;5074336;28;20163;-60
2021/01/10 10:29:18;;;;;;;2.07;1.70;;;18.40;24.00;;;;;;5074321;28;20167;-59
2021/01/10 10:31:47;;;;;;;1.80;1.70;;;18.80;24.20;;;;;;5074195;28;20187;-60
2021/01/10 10:34:13;;;;;;;3.17;1.90;;;18.80;24.20;;;;;;5074190;28;20169;-60
2021/01/10 10:36:39;;;;;;;2.07;1.87;;;18.80;24.20;;;;;;5074083;28;20238;-60
2021/01/10 10:39:04;;;;;;;1.77;1.67;;;18.80;24.20;;;;;;5073649;28;20158;-59
2021/01/10 10:41:33;;;;;;;1.97;1.77;;;18.80;24.20;;;;;;5073023;28;20521;-59
2021/01/10 10:43:58;;;;;;;1.70;1.60;;;18.80;24.20;;;;;;5073773;28;20159;-59
2021/01/10 10:46:24;;;;;;;1.87;1.77;;;18.80;24.20;;;;;;5073936;28;20614;-60
2021/01/10 10:48:50;;;;;;;2.27;2.07;;;18.80;24.20;;;;;;5072849;28;20483;-59
2021/01/10 10:51:15;;;;;;;1.87;1.77;;;18.80;24.10;;;;;;5072780;28;20198;-61
2021/01/10 10:53:41;;;;;;;2.07;1.83;;;18.80;24.20;;;;;;5073359;28;20159;-60
2021/01/10 10:56:07;;;;;;;2.23;2.00;;;18.80;24.20;;;;;;5073587;28;20174;-60
2021/01/10 10:58:32;;;;;;;1.90;1.80;;;18.90;24.20;;;;;;5072221;28;20609;-59
2021/01/10 11:00:58;;;;;;;2.90;1.80;;;18.90;24.20;;;;;;5074034;28;20541;-60
2021/01/10 11:03:24;;;;;;;1.87;1.70;;;18.90;24.20;;;;;;5073688;28;20614;-61
2021/01/10 11:05:49;;;;;;;1.73;1.63;;;18.90;24.20;;;;;;5072302;28;20923;-60
2021/01/10 11:08:15;;;;;;;1.73;1.63;;;18.80;24.10;;;;;;5073218;28;20164;-60
2021/01/10 11:10:41;;;;;;;2.40;1.73;;;18.90;24.20;;;;;;5073798;28;20283;-60
2021/01/10 11:13:06;;;;;;;1.60;1.50;;;18.90;24.20;;;;;;5073457;28;20225;-59
2021/01/10 11:15:32;;;;;;;2.10;2.00;;;18.90;24.20;;;;;;5073799;28;20170;-60
2021/01/10 11:18:01;;;;;;;1.97;1.87;;;18.80;24.10;;;;;;5073682;28;20672;-60
2021/01/10 11:20:26;;;;;;;1.75;1.65;;;18.80;24.10;;;;;;5073499;28;20573;-60
2021/01/10 11:22:52;;;;;;;1.60;1.33;;;18.90;24.20;;;;;;5072953;28;20634;-59
2021/01/10 11:25:18;;;;;;;1.87;1.73;;;18.90;24.20;;;;;;5073542;28;20668;-59
2021/01/10 11:27:43;;;;;;;1.70;1.60;;;18.90;24.20;;;;;;5072328;28;20171;-60
2021/01/10 11:30:09;;;;;;;1.80;1.70;;;18.90;24.20;;;;;;5073392;28;20578;-60
2021/01/10 11:32:37;;;;;;;2.00;1.83;;;18.90;24.20;;;;;;5073432;28;20163;-59
2021/01/10 11:35:03;;;;;;;3.65;2.03;;;18.80;24.10;;;;;;5072165;28;20229;-60
2021/01/10 11:37:32;;;;;;;1.85;1.60;;;18.90;24.20;;;;;;5071717;28;20575;-60
2021/01/10 11:39:57;;;;;;;1.95;1.80;;;18.90;24.20;;;;;;5073454;28;20262;-61
2021/01/10 11:42:23;;;;;;;1.60;1.37;;;18.90;24.20;;;;;;5072085;28;20621;-60
2021/01/10 11:44:48;;;;;;;1.80;1.70;;;18.90;24.20;;;;;;5072145;28;20242;-59
2021/01/10 11:47:14;;;;;;;2.07;1.80;;;18.90;24.10;;;;;;5073104;28;20200;-59
2021/01/10 11:49:40;;;;;;;1.50;1.40;;;18.90;24.80;;;;;;5073345;28;20162;-60
2021/01/10 11:52:05;;;;;;;1.63;1.53;;;18.90;24.10;;;;;;5072484;28;20646;-60
2021/01/10 11:54:31;;;;;;;1.73;1.60;;;18.90;24.10;;;;;;5073234;28;20162;-60
2021/01/10 11:56:57;;;;;;;1.83;1.57;;;18.90;24.10;;;;;;5073006;28;20174;-59
2021/01/10 11:59:22;;;;;;;3.73;1.60;;;18.90;24.10;;;;;;5073447;28;20488;-60
2021/01/10 12:01:48;;;;;;;2.20;1.73;;;18.90;24.10;;;;;;5073283;28;20691;-60
2021/01/10 12:04:13;;;;;;;1.73;1.63;;;18.90;24.10;;;;;;5072898;28;20637;-60
2021/01/10 12:06:40;;;;;;;1.80;1.70;;;18.90;24.10;;;;;;5073064;28;20245;-60
2021/01/10 12:09:10;;;;;;;2.05;1.85;;;18.90;24.10;;;;;;5073532;28;20237;-59
2021/01/10 12:11:39;;;;;;;1.88;1.70;;;18.90;24.10;;;;;;5076580;28;20248;-60
2021/01/10 12:14:06;;;;;;;2.13;1.92;;;18.90;24.10;;;;;;5076795;28;20225;-60
2021/01/10 12:16:32;;;;;;;1.83;1.73;;;18.90;24.10;;;;;;5076713;28;20154;-61
2021/01/10 12:18:57;;;;;;;2.30;1.63;;;19.00;24.10;;;;;;5076554;28;20657;-60
2021/01/10 12:21:23;;;;;;;2.40;1.87;;;18.90;24.00;;;;;;5076644;28;20512;-60
2021/01/10 12:23:49;;;;;;;1.97;1.77;;;19.00;24.00;;;;;;5076055;28;20610;-60
2021/01/10 12:26:16;;;;;;;2.00;1.90;;;19.00;23.90;;;;;;5076439;28;20629;-60
2021/01/10 12:28:44;;;;;;;1.90;1.80;;;19.00;23.30;;;;;;5058367;28;20166;-60
2021/01/10 12:31:10;;;;;;;1.95;1.75;;;19.00;23.50;;;;;;5076426;28;20182;-61
2021/01/10 12:33:36;;;;;;;2.13;2.00;;;19.00;23.50;;;;;;5076373;28;20154;-60
2021/01/10 12:36:03;;;;;;;2.47;2.25;;;19.00;23.50;;;;;;5076093;28;20151;-59
2021/01/10 12:38:29;;;;;;;2.75;2.10;;;19.00;23.50;;;;;;5075903;28;20163;-60
2021/01/10 12:40:55;;;;;;;11.80;6.10;;;19.00;23.50;;;;;;5076838;28;20186;-67
2021/01/10 12:43:21;;;;;;;5.25;4.18;;;18.60;13.20;;;;;;5076110;28;20162;-60
2021/01/10 12:45:47;;;;;;;3.27;2.97;;;17.30;19.30;;;;;;5075205;28;20182;-59
2021/01/10 12:48:13;;;;;;;3.63;3.28;;;17.30;22.40;;;;;;5074712;28;20547;-59
2021/01/10 12:50:38;;;;;;;3.93;3.27;;;17.40;23.30;;;;;;5074995;28;20190;-59
2021/01/10 12:53:04;;;;;;;3.93;2.90;;;17.60;23.30;;;;;;5075790;28;20162;-58
2021/01/10 12:55:33;;;;;;;4.53;3.05;;;17.80;23.00;;;;;;5074842;28;20198;-59
2021/01/10 12:58:03;;;;;;;4.47;2.70;;;17.90;22.80;;;;;;5075939;28;20185;-59